sensor_id;sensor_type;location;lat;lon;timestamp;pressure;altitude;pressure_sealevel;temperature;humidity
22743;BME280;11538;48.884;8.696;2022-12-26T00:01:27;98687.00;;;8.67;100.00
22743;BME280;11538;48.884;8.696;2022-12-26T00:03:54;98703.09;;;8.77;100.00
22743;BME280;11538;48.884;8.696;2022-12-26T00:06:24;98705.69;;;8.87;100.00
22743;BME280;11538;48.884;8.696;2022-12-26T00:08:53;98709.34;;;8.97;100.00
22743;BME280;11538;48.884;8.696;2022-12-26T00:11:20;98707.41;;;9.02;100.00
22743;BME280;11538;48.884;8.696;2022-12-26T00:13:56;98696.00;;;9.05;100.00
22743;BME280;11538;48.884;8.696;2022-12-26T00:16:23;98695.59;;;9.12;100.00
22743;BME280;11538;48.884;8.696;2022-12-26T00:18:52;98687.34;;;9.03;100.00
22743;BME280;11538;48.884;8.696;2022-12-26T00:21:20;98692.09;;;8.92;100.00
22743;BME280;11538;48.884;8.696;2022-12-26T00:23:47;98695.44;;;8.84;100.00
22743;BME280;11538;48.884;8.696;2022-12-26T00:26:16;98694.94;;;8.82;100.00
22743;BME280;11538;48.884;8.696;2022-12-26T00:28:43;98695.44;;;8.84;100.00
22743;BME280;11538;48.884;8.696;2022-12-26T00:31:13;98703.03;;;8.82;100.00
22743;BME280;11538;48.884;8.696;2022-12-26T00:33:41;98685.13;;;8.86;100.00
22743;BME280;11538;48.884;8.696;2022-12-26T00:36:11;98679.91;;;8.95;100.00
22743;BME280;11538;48.884;8.696;2022-12-26T00:38:42;98694.28;;;8.90;100.00
22743;BME280;11538;48.884;8.696;2022-12-26T00:41:11;98689.09;;;8.94;100.00
22743;BME280;11538;48.884;8.696;2022-12-26T00:43:39;98693.03;;;8.83;100.00
22743;BME280;11538;48.884;8.696;2022-12-26T00:46:07;98701.09;;;8.63;100.00
22743;BME280;11538;48.884;8.696;2022-12-26T00:48:34;98698.78;;;8.52;100.00
22743;BME280;11538;48.884;8.696;2022-12-26T00:51:01;98699.34;;;8.48;100.00
22743;BME280;11538;48.884;8.696;2022-12-26T00:53:28;98699.66;;;8.47;100.00
22743;BME280;11538;48.884;8.696;2022-12-26T00:55:55;98696.41;;;8.50;100.00
22743;BME280;11538;48.884;8.696;2022-12-26T00:58:22;98698.56;;;8.48;100.00
22743;BME280;11538;48.884;8.696;2022-12-26T01:00:50;98689.94;;;8.46;100.00
22743;BME280;11538;48.884;8.696;2022-12-26T01:03:18;98690.50;;;8.43;100.00
22743;BME280;11538;48.884;8.696;2022-12-26T01:05:50;98697.28;;;8.40;100.00
22743;BME280;11538;48.884;8.696;2022-12-26T01:08:17;98698.63;;;8.43;100.00
22743;BME280;11538;48.884;8.696;2022-12-26T01:10:49;98696.94;;;8.47;100.00
22743;BME280;11538;48.884;8.696;2022-12-26T01:13:16;98688.31;;;8.45;100.00
22743;BME280;11538;48.884;8.696;2022-12-26T01:15:51;98682.00;;;8.30;100.00
22743;BME280;11538;48.884;8.696;2022-12-26T01:18:20;98669.31;;;8.26;100.00
22743;BME280;11538;48.884;8.696;2022-12-26T01:20:50;98689.00;;;8.31;100.00
22743;BME280;11538;48.884;8.696;2022-12-26T01:23:17;98680.25;;;8.40;100.00
22743;BME280;11538;48.884;8.696;2022-12-26T01:25:43;98689.41;;;8.44;100.00
22743;BME280;11538;48.884;8.696;2022-12-26T01:28:30;98695.44;;;8.36;100.00
22743;BME280;11538;48.884;8.696;2022-12-26T01:31:04;98695.72;;;8.34;100.00
22743;BME280;11538;48.884;8.696;2022-12-26T01:33:31;98699.25;;;8.34;100.00
22743;BME280;11538;48.884;8.696;2022-12-26T01:35:59;98706.25;;;8.36;100.00
22743;BME280;11538;48.884;8.696;2022-12-26T01:38:26;98700.59;;;8.32;100.00
22743;BME280;11538;48.884;8.696;2022-12-26T01:40:53;98713.53;;;8.35;100.00
22743;BME280;11538;48.884;8.696;2022-12-26T01:43:58;98712.75;;;8.34;100.00
22743;BME280;11538;48.884;8.696;2022-12-26T01:46:33;98717.63;;;8.32;100.00
22743;BME280;11538;48.884;8.696;2022-12-26T01:49:12;98716.03;;;8.31;100.00
22743;BME280;11538;48.884;8.696;2022-12-26T01:51:43;98717.59;;;8.38;100.00
22743;BME280;11538;48.884;8.696;2022-12-26T01:54:12;98714.38;;;8.36;100.00
22743;BME280;11538;48.884;8.696;2022-12-26T01:57:01;98709.81;;;8.31;100.00
22743;BME280;11538;48.884;8.696;2022-12-26T01:59:31;98709.53;;;8.32;100.00
22743;BME280;11538;48.884;8.696;2022-12-26T02:02:02;98719.81;;;8.30;100.00
22743;BME280;11538;48.884;8.696;2022-12-26T02:04:50;98712.50;;;8.31;100.00
22743;BME280;11538;48.884;8.696;2022-12-26T02:07:38;98701.19;;;8.29;100.00
22743;BME280;11538;48.884;8.696;2022-12-26T02:10:08;98697.16;;;8.26;100.00
22743;BME280;11538;48.884;8.696;2022-12-26T02:12:39;98684.44;;;8.27;100.00
22743;BME280;11538;48.884;8.696;2022-12-26T02:15:11;98707.94;;;8.31;100.00
22743;BME280;11538;48.884;8.696;2022-12-26T02:17:39;98709.47;;;8.38;100.00
22743;BME280;11538;48.884;8.696;2022-12-26T02:20:24;98715.03;;;8.46;100.00
22743;BME280;11538;48.884;8.696;2022-12-26T02:28:44;98717.13;;;8.30;100.00
22743;BME280;11538;48.884;8.696;2022-12-26T02:34:16;98726.72;;;8.42;100.00
22743;BME280;11538;48.884;8.696;2022-12-26T02:36:58;98721.50;;;8.51;100.00
22743;BME280;11538;48.884;8.696;2022-12-26T02:42:41;98733.22;;;8.41;100.00
22743;BME280;11538;48.884;8.696;2022-12-26T02:45:29;98732.53;;;8.30;100.00
22743;BME280;11538;48.884;8.696;2022-12-26T02:48:46;98730.75;;;8.20;100.00
22743;BME280;11538;48.884;8.696;2022-12-26T02:51:43;98734.53;;;8.19;100.00
22743;BME280;11538;48.884;8.696;2022-12-26T02:55:00;98729.34;;;8.23;100.00
22743;BME280;11538;48.884;8.696;2022-12-26T03:00:42;98730.06;;;8.33;100.00
22743;BME280;11538;48.884;8.696;2022-12-26T03:03:32;98736.78;;;8.36;100.00
22743;BME280;11538;48.884;8.696;2022-12-26T03:06:26;98716.31;;;8.30;100.00
22743;BME280;11538;48.884;8.696;2022-12-26T03:09:16;98719.25;;;8.33;100.00
22743;BME280;11538;48.884;8.696;2022-12-26T03:15:15;98705.75;;;8.33;100.00
22743;BME280;11538;48.884;8.696;2022-12-26T03:17:59;98695.03;;;8.23;100.00
22743;BME280;11538;48.884;8.696;2022-12-26T03:20:28;98692.09;;;8.19;100.00
22743;BME280;11538;48.884;8.696;2022-12-26T03:22:59;98691.81;;;8.21;100.00
22743;BME280;11538;48.884;8.696;2022-12-26T03:25:43;98693.38;;;8.27;100.00
22743;BME280;11538;48.884;8.696;2022-12-26T03:28:30;98683.88;;;8.30;100.00
22743;BME280;11538;48.884;8.696;2022-12-26T03:30:59;98676.53;;;8.36;100.00
22743;BME280;11538;48.884;8.696;2022-12-26T03:33:30;98682.16;;;8.39;100.00
22743;BME280;11538;48.884;8.696;2022-12-26T03:42:45;98695.19;;;8.32;100.00
22743;BME280;11538;48.884;8.696;2022-12-26T03:51:22;98689.63;;;8.47;100.00
22743;BME280;11538;48.884;8.696;2022-12-26T03:54:16;98704.31;;;8.66;100.00
22743;BME280;11538;48.884;8.696;2022-12-26T03:57:09;98692.81;;;8.79;100.00
22743;BME280;11538;48.884;8.696;2022-12-26T04:02:44;98704.31;;;8.90;100.00
22743;BME280;11538;48.884;8.696;2022-12-26T04:05:34;98706.25;;;8.84;100.00
22743;BME280;11538;48.884;8.696;2022-12-26T04:08:26;98690.09;;;8.79;100.00
22743;BME280;11538;48.884;8.696;2022-12-26T04:11:15;98701.50;;;8.76;100.00
22743;BME280;11538;48.884;8.696;2022-12-26T04:14:12;98708.56;;;8.72;100.00
22743;BME280;11538;48.884;8.696;2022-12-26T04:17:22;98705.66;;;8.68;100.00
22743;BME280;11538;48.884;8.696;2022-12-26T04:20:21;98708.06;;;8.70;100.00
22743;BME280;11538;48.884;8.696;2022-12-26T04:22:59;98706.44;;;8.69;100.00
22743;BME280;11538;48.884;8.696;2022-12-26T04:25:54;98701.03;;;8.69;100.00
22743;BME280;11538;48.884;8.696;2022-12-26T04:28:42;98695.44;;;8.65;100.00
22743;BME280;11538;48.884;8.696;2022-12-26T04:31:35;98697.03;;;8.66;100.00
22743;BME280;11538;48.884;8.696;2022-12-26T04:34:46;98682.44;;;8.86;100.00
22743;BME280;11538;48.884;8.696;2022-12-26T04:37:38;98687.78;;;8.91;100.00
22743;BME280;11538;48.884;8.696;2022-12-26T04:40:28;98689.31;;;8.98;100.00
22743;BME280;11538;48.884;8.696;2022-12-26T04:43:15;98683.13;;;8.97;100.00
22743;BME280;11538;48.884;8.696;2022-12-26T04:46:18;98673.97;;;8.93;100.00
22743;BME280;11538;48.884;8.696;2022-12-26T04:48:47;98681.72;;;9.00;100.00
22743;BME280;11538;48.884;8.696;2022-12-26T04:51:34;98693.50;;;9.09;100.00
22743;BME280;11538;48.884;8.696;2022-12-26T04:54:02;98691.00;;;9.13;100.00
22743;BME280;11538;48.884;8.696;2022-12-26T04:56:29;98704.25;;;9.14;100.00
22743;BME280;11538;48.884;8.696;2022-12-26T04:58:56;98709.66;;;9.14;100.00
22743;BME280;11538;48.884;8.696;2022-12-26T05:01:23;98710.69;;;9.18;100.00
22743;BME280;11538;48.884;8.696;2022-12-26T05:04:16;98709.88;;;9.18;100.00
22743;BME280;11538;48.884;8.696;2022-12-26T05:07:04;98719.69;;;9.14;100.00
22743;BME280;11538;48.884;8.696;2022-12-26T05:09:52;98721.38;;;9.10;100.00
22743;BME280;11538;48.884;8.696;2022-12-26T05:12:19;98722.81;;;9.02;100.00
22743;BME280;11538;48.884;8.696;2022-12-26T05:14:46;98724.47;;;8.98;100.00
22743;BME280;11538;48.884;8.696;2022-12-26T05:17:13;98722.00;;;9.01;100.00
22743;BME280;11538;48.884;8.696;2022-12-26T05:19:58;98728.66;;;9.09;100.00
22743;BME280;11538;48.884;8.696;2022-12-26T05:22:44;98723.69;;;9.16;100.00
22743;BME280;11538;48.884;8.696;2022-12-26T05:25:36;98718.34;;;9.11;100.00
22743;BME280;11538;48.884;8.696;2022-12-26T05:28:24;98723.84;;;9.06;100.00
22743;BME280;11538;48.884;8.696;2022-12-26T05:31:14;98730.84;;;9.07;100.00
22743;BME280;11538;48.884;8.696;2022-12-26T05:33:42;98740.59;;;9.08;100.00
22743;BME280;11538;48.884;8.696;2022-12-26T05:36:31;98723.03;;;9.25;100.00
22743;BME280;11538;48.884;8.696;2022-12-26T05:39:00;98723.63;;;9.41;100.00
22743;BME280;11538;48.884;8.696;2022-12-26T05:41:27;98726.06;;;9.42;100.00
22743;BME280;11538;48.884;8.696;2022-12-26T05:43:54;98719.25;;;9.45;100.00
22743;BME280;11538;48.884;8.696;2022-12-26T05:46:21;98719.03;;;9.41;100.00
22743;BME280;11538;48.884;8.696;2022-12-26T05:48:48;98715.31;;;9.37;100.00
22743;BME280;11538;48.884;8.696;2022-12-26T05:51:15;98708.38;;;9.31;100.00
22743;BME280;11538;48.884;8.696;2022-12-26T05:53:41;98714.72;;;9.21;100.00
22743;BME280;11538;48.884;8.696;2022-12-26T05:56:11;98717.19;;;9.17;100.00
22743;BME280;11538;48.884;8.696;2022-12-26T05:58:38;98711.78;;;9.17;100.00
22743;BME280;11538;48.884;8.696;2022-12-26T06:01:25;98718.00;;;9.18;100.00
22743;BME280;11538;48.884;8.696;2022-12-26T06:03:54;98705.56;;;9.17;100.00
22743;BME280;11538;48.884;8.696;2022-12-26T06:06:22;98693.41;;;9.14;100.00
22743;BME280;11538;48.884;8.696;2022-12-26T06:08:51;98695.03;;;9.15;100.00
22743;BME280;11538;48.884;8.696;2022-12-26T06:11:19;98705.78;;;9.20;100.00
22743;BME280;11538;48.884;8.696;2022-12-26T06:13:46;98705.19;;;9.24;100.00
22743;BME280;11538;48.884;8.696;2022-12-26T06:16:15;98706.53;;;9.26;100.00
22743;BME280;11538;48.884;8.696;2022-12-26T06:18:43;98706.44;;;9.31;100.00
22743;BME280;11538;48.884;8.696;2022-12-26T06:21:13;98713.97;;;9.34;100.00
22743;BME280;11538;48.884;8.696;2022-12-26T06:23:41;98703.66;;;9.36;100.00
22743;BME280;11538;48.884;8.696;2022-12-26T06:26:08;98696.38;;;9.37;100.00
22743;BME280;11538;48.884;8.696;2022-12-26T06:28:36;98694.97;;;9.40;100.00
22743;BME280;11538;48.884;8.696;2022-12-26T06:31:08;98695.78;;;9.40;100.00
22743;BME280;11538;48.884;8.696;2022-12-26T06:33:35;98697.38;;;9.41;100.00
22743;BME280;11538;48.884;8.696;2022-12-26T06:36:09;98699.59;;;9.39;100.00
22743;BME280;11538;48.884;8.696;2022-12-26T06:38:36;98696.38;;;9.37;100.00
22743;BME280;11538;48.884;8.696;2022-12-26T06:41:04;98699.66;;;9.34;100.00
22743;BME280;11538;48.884;8.696;2022-12-26T06:43:32;98727.25;;;9.36;100.00
22743;BME280;11538;48.884;8.696;2022-12-26T06:46:00;98730.72;;;9.36;100.00
22743;BME280;11538;48.884;8.696;2022-12-26T06:48:28;98743.69;;;9.40;100.00
22743;BME280;11538;48.884;8.696;2022-12-26T06:50:55;98741.72;;;9.45;100.00
22743;BME280;11538;48.884;8.696;2022-12-26T06:53:23;98741.91;;;9.49;100.00
22743;BME280;11538;48.884;8.696;2022-12-26T06:55:50;98754.59;;;9.54;100.00
22743;BME280;11538;48.884;8.696;2022-12-26T06:58:17;98760.53;;;9.56;100.00
22743;BME280;11538;48.884;8.696;2022-12-26T07:00:44;98762.22;;;9.51;100.00
22743;BME280;11538;48.884;8.696;2022-12-26T07:03:11;98760.94;;;9.44;100.00
22743;BME280;11538;48.884;8.696;2022-12-26T07:05:38;98763.97;;;9.42;100.00
22743;BME280;11538;48.884;8.696;2022-12-26T07:08:05;98770.41;;;9.46;100.00
22743;BME280;11538;48.884;8.696;2022-12-26T07:10:35;98757.44;;;9.43;100.00
22743;BME280;11538;48.884;8.696;2022-12-26T07:13:02;98753.13;;;9.42;100.00
22743;BME280;11538;48.884;8.696;2022-12-26T07:15:30;98754.81;;;9.38;100.00
22743;BME280;11538;48.884;8.696;2022-12-26T07:17:57;98755.34;;;9.40;100.00
22743;BME280;11538;48.884;8.696;2022-12-26T07:20:23;98754.22;;;9.41;100.00
22743;BME280;11538;48.884;8.696;2022-12-26T07:22:50;98761.84;;;9.39;100.00
22743;BME280;11538;48.884;8.696;2022-12-26T07:25:17;98754.81;;;9.38;100.00
22743;BME280;11538;48.884;8.696;2022-12-26T07:27:44;98756.19;;;9.35;100.00
22743;BME280;11538;48.884;8.696;2022-12-26T07:30:11;98751.16;;;9.29;100.00
22743;BME280;11538;48.884;8.696;2022-12-26T07:32:38;98746.09;;;9.22;100.00
22743;BME280;11538;48.884;8.696;2022-12-26T07:35:05;98746.94;;;9.17;100.00
22743;BME280;11538;48.884;8.696;2022-12-26T07:37:31;98749.97;;;9.16;100.00
22743;BME280;11538;48.884;8.696;2022-12-26T07:39:58;98754.78;;;9.19;100.00
22743;BME280;11538;48.884;8.696;2022-12-26T07:42:25;98754.22;;;9.22;100.00
22743;BME280;11538;48.884;8.696;2022-12-26T07:44:52;98747.91;;;9.27;100.00
22743;BME280;11538;48.884;8.696;2022-12-26T07:47:18;98751.88;;;9.34;100.00
22743;BME280;11538;48.884;8.696;2022-12-26T07:49:45;98759.22;;;9.34;100.00
22743;BME280;11538;48.884;8.696;2022-12-26T07:52:13;98781.59;;;9.40;100.00
22743;BME280;11538;48.884;8.696;2022-12-26T07:54:40;98774.22;;;9.45;100.00
22743;BME280;11538;48.884;8.696;2022-12-26T07:57:07;98779.56;;;9.50;100.00
22743;BME280;11538;48.884;8.696;2022-12-26T07:59:54;98784.47;;;9.48;100.00
22743;BME280;11538;48.884;8.696;2022-12-26T08:02:20;98790.38;;;9.50;100.00
22743;BME280;11538;48.884;8.696;2022-12-26T08:04:48;98793.59;;;9.53;100.00
22743;BME280;11538;48.884;8.696;2022-12-26T08:07:14;98800.63;;;9.54;100.00
22743;BME280;11538;48.884;8.696;2022-12-26T08:09:41;98805.75;;;9.55;100.00
22743;BME280;11538;48.884;8.696;2022-12-26T08:12:10;98801.13;;;9.56;100.00
22743;BME280;11538;48.884;8.696;2022-12-26T08:14:39;98810.06;;;9.56;100.00
22743;BME280;11538;48.884;8.696;2022-12-26T08:17:06;98820.16;;;9.50;100.00
22743;BME280;11538;48.884;8.696;2022-12-26T08:19:33;98823.22;;;9.44;100.00
22743;BME280;11538;48.884;8.696;2022-12-26T08:22:00;98835.44;;;9.41;100.00
22743;BME280;11538;48.884;8.696;2022-12-26T08:24:27;98839.78;;;9.42;100.00
22743;BME280;11538;48.884;8.696;2022-12-26T08:26:54;98845.97;;;9.43;100.00
22743;BME280;11538;48.884;8.696;2022-12-26T08:29:21;98853.81;;;9.44;100.00
22743;BME280;11538;48.884;8.696;2022-12-26T08:31:48;98854.63;;;9.45;100.00
22743;BME280;11538;48.884;8.696;2022-12-26T08:34:14;98868.47;;;9.43;100.00
22743;BME280;11538;48.884;8.696;2022-12-26T08:36:41;98877.09;;;9.45;100.00
22743;BME280;11538;48.884;8.696;2022-12-26T08:39:09;98886.47;;;9.53;100.00
22743;BME280;11538;48.884;8.696;2022-12-26T08:41:37;98898.03;;;9.59;100.00
22743;BME280;11538;48.884;8.696;2022-12-26T08:44:04;98905.59;;;9.62;100.00
22743;BME280;11538;48.884;8.696;2022-12-26T08:46:51;98909.25;;;9.71;100.00
22743;BME280;11538;48.884;8.696;2022-12-26T08:49:18;98909.41;;;9.80;100.00
22743;BME280;11538;48.884;8.696;2022-12-26T08:51:45;98915.19;;;9.92;100.00
22743;BME280;11538;48.884;8.696;2022-12-26T08:54:12;98916.75;;;9.99;100.00
22743;BME280;11538;48.884;8.696;2022-12-26T08:56:38;98902.84;;;10.05;100.00
22743;BME280;11538;48.884;8.696;2022-12-26T08:59:06;98901.16;;;10.09;100.00
22743;BME280;11538;48.884;8.696;2022-12-26T09:01:33;98909.00;;;10.11;100.00
22743;BME280;11538;48.884;8.696;2022-12-26T09:04:02;98913.59;;;10.10;100.00
22743;BME280;11538;48.884;8.696;2022-12-26T09:06:35;98926.88;;;10.12;100.00
22743;BME280;11538;48.884;8.696;2022-12-26T09:09:04;98930.88;;;10.15;100.00
22743;BME280;11538;48.884;8.696;2022-12-26T09:11:32;98933.59;;;10.15;100.00
22743;BME280;11538;48.884;8.696;2022-12-26T09:14:00;98937.91;;;10.16;100.00
22743;BME280;11538;48.884;8.696;2022-12-26T09:16:30;98940.63;;;10.16;100.00
22743;BME280;11538;48.884;8.696;2022-12-26T09:19:05;98943.34;;;10.16;100.00
22743;BME280;11538;48.884;8.696;2022-12-26T09:21:32;98938.94;;;10.20;100.00
22743;BME280;11538;48.884;8.696;2022-12-26T09:24:04;98947.00;;;10.25;100.00
22743;BME280;11538;48.884;8.696;2022-12-26T09:26:31;98939.91;;;10.29;100.00
22743;BME280;11538;48.884;8.696;2022-12-26T09:28:58;98939.31;;;10.32;100.00
22743;BME280;11538;48.884;8.696;2022-12-26T09:31:28;98964.22;;;10.34;100.00
22743;BME280;11538;48.884;8.696;2022-12-26T09:33:55;98954.19;;;10.35;100.00
22743;BME280;11538;48.884;8.696;2022-12-26T09:36:30;98970.75;;;10.33;100.00
22743;BME280;11538;48.884;8.696;2022-12-26T09:38:57;98980.78;;;10.33;100.00
22743;BME280;11538;48.884;8.696;2022-12-26T09:44:27;98990.03;;;10.32;100.00
22743;BME280;11538;48.884;8.696;2022-12-26T09:50:41;98970.03;;;10.28;100.00
22743;BME280;11538;48.884;8.696;2022-12-26T09:52:52;98957.84;;;10.25;100.00
22743;BME280;11538;48.884;8.696;2022-12-26T10:01:17;98969.78;;;10.24;100.00
22743;BME280;11538;48.884;8.696;2022-12-26T10:03:51;98971.72;;;10.23;100.00
22743;BME280;11538;48.884;8.696;2022-12-26T10:06:30;98979.53;;;10.25;100.00
22743;BME280;11538;48.884;8.696;2022-12-26T10:23:19;99000.72;;;10.23;100.00
22743;BME280;11538;48.884;8.696;2022-12-26T10:29:10;98996.97;;;10.19;100.00
22743;BME280;11538;48.884;8.696;2022-12-26T10:31:41;98989.16;;;10.17;100.00
22743;BME280;11538;48.884;8.696;2022-12-26T10:34:17;98997.28;;;10.17;100.00
22743;BME280;11538;48.884;8.696;2022-12-26T10:39:30;98981.09;;;10.12;100.00
22743;BME280;11538;48.884;8.696;2022-12-26T10:42:09;98974.84;;;10.12;100.00
22743;BME280;11538;48.884;8.696;2022-12-26T10:44:38;98968.63;;;10.11;100.00
22743;BME280;11538;48.884;8.696;2022-12-26T10:47:36;98962.91;;;10.13;100.00
22743;BME280;11538;48.884;8.696;2022-12-26T10:50:04;98969.94;;;10.14;100.00
22743;BME280;11538;48.884;8.696;2022-12-26T10:52:39;98973.47;;;10.14;100.00
22743;BME280;11538;48.884;8.696;2022-12-26T10:55:13;98981.00;;;10.17;100.00
22743;BME280;11538;48.884;8.696;2022-12-26T10:57:59;98971.78;;;10.18;100.00
22743;BME280;11538;48.884;8.696;2022-12-26T11:00:28;98966.06;;;10.20;100.00
22743;BME280;11538;48.884;8.696;2022-12-26T11:03:09;98960.56;;;10.25;100.00
22743;BME280;11538;48.884;8.696;2022-12-26T11:05:40;98954.53;;;10.28;100.00
22743;BME280;11538;48.884;8.696;2022-12-26T11:08:38;98963.44;;;10.34;100.00
22743;BME280;11538;48.884;8.696;2022-12-26T11:11:26;98941.44;;;10.35;100.00
22743;BME280;11538;48.884;8.696;2022-12-26T11:14:37;98926.22;;;10.39;100.00
22743;BME280;11538;48.884;8.696;2022-12-26T11:17:24;98929.34;;;10.47;100.00
22743;BME280;11538;48.884;8.696;2022-12-26T11:22:45;98934.09;;;10.55;100.00
22743;BME280;11538;48.884;8.696;2022-12-26T11:25:16;98934.09;;;10.55;100.00
22743;BME280;11538;48.884;8.696;2022-12-26T11:27:50;98933.50;;;10.58;100.00
22743;BME280;11538;48.884;8.696;2022-12-26T11:30:21;98927.53;;;10.61;100.00
22743;BME280;11538;48.884;8.696;2022-12-26T11:33:15;98932.94;;;10.61;100.00
22743;BME280;11538;48.884;8.696;2022-12-26T11:35:50;98939.47;;;10.60;100.00
22743;BME280;11538;48.884;8.696;2022-12-26T11:38:20;98942.19;;;10.60;100.00
22743;BME280;11538;48.884;8.696;2022-12-26T11:41:31;98961.47;;;10.59;100.00
22743;BME280;11538;48.884;8.696;2022-12-26T11:44:16;98960.13;;;10.56;100.00
22743;BME280;11538;48.884;8.696;2022-12-26T11:49:30;98952.22;;;10.60;100.00
22743;BME280;11538;48.884;8.696;2022-12-26T11:51:59;98941.59;;;10.63;100.00
22743;BME280;11538;48.884;8.696;2022-12-26T11:54:35;98941.28;;;10.65;100.00
22743;BME280;11538;48.884;8.696;2022-12-26T11:57:10;98933.88;;;10.71;100.00
22743;BME280;11538;48.884;8.696;2022-12-26T11:59:38;98929.25;;;10.71;100.00
22743;BME280;11538;48.884;8.696;2022-12-26T12:04:48;98917.44;;;10.81;100.00
22743;BME280;11538;48.884;8.696;2022-12-26T12:07:25;98913.91;;;10.80;100.00
22743;BME280;11538;48.884;8.696;2022-12-26T12:12:52;98921.03;;;10.76;100.00
22743;BME280;11538;48.884;8.696;2022-12-26T12:15:27;98937.31;;;10.76;100.00
22743;BME280;11538;48.884;8.696;2022-12-26T12:18:50;98934.59;;;10.76;100.00
22743;BME280;11538;48.884;8.696;2022-12-26T12:21:16;98925.16;;;10.74;100.00
22743;BME280;11538;48.884;8.696;2022-12-26T12:26:41;98928.38;;;10.76;100.00
22743;BME280;11538;48.884;8.696;2022-12-26T12:29:35;98922.94;;;10.76;100.00
22743;BME280;11538;48.884;8.696;2022-12-26T12:32:35;98922.72;;;10.72;100.00
22743;BME280;11538;48.884;8.696;2022-12-26T12:35:30;98923.53;;;10.73;100.00
22743;BME280;11538;48.884;8.696;2022-12-26T12:44:21;98916.59;;;10.80;100.00
22743;BME280;11538;48.884;8.696;2022-12-26T12:57:26;98912.94;;;10.90;100.00
22743;BME280;11538;48.884;8.696;2022-12-26T13:00:20;98908.09;;;10.87;100.00
22743;BME280;11538;48.884;8.696;2022-12-26T13:03:09;98905.88;;;10.89;100.00
22743;BME280;11538;48.884;8.696;2022-12-26T13:08:17;98899.69;;;11.03;100.00
22743;BME280;11538;48.884;8.696;2022-12-26T13:10:52;98905.00;;;11.08;100.00
22743;BME280;11538;48.884;8.696;2022-12-26T13:16:09;98899.78;;;11.11;100.00
22743;BME280;11538;48.884;8.696;2022-12-26T13:18:43;98892.22;;;11.08;100.00
22743;BME280;11538;48.884;8.696;2022-12-26T13:21:14;98898.97;;;11.11;100.00
22743;BME280;11538;48.884;8.696;2022-12-26T13:23:52;98901.69;;;11.11;100.00
22743;BME280;11538;48.884;8.696;2022-12-26T13:26:44;98903.91;;;11.09;100.00
22743;BME280;11538;48.884;8.696;2022-12-26T13:32:01;98899.78;;;11.11;100.00
22743;BME280;11538;48.884;8.696;2022-12-26T13:34:30;98895.66;;;11.14;100.00
22743;BME280;11538;48.884;8.696;2022-12-26T13:36:59;98891.34;;;11.13;100.00
22743;BME280;11538;48.884;8.696;2022-12-26T13:42:21;98879.56;;;11.18;100.00
22743;BME280;11538;48.884;8.696;2022-12-26T14:04:34;98873.53;;;11.07;100.00
22743;BME280;11538;48.884;8.696;2022-12-26T14:10:25;98878.66;;;11.08;100.00
22743;BME280;11538;48.884;8.696;2022-12-26T14:18:49;98892.03;;;11.05;100.00
22743;BME280;11538;48.884;8.696;2022-12-26T14:21:30;98888.50;;;11.04;100.00
22743;BME280;11538;48.884;8.696;2022-12-26T14:24:20;98881.97;;;11.05;100.00
22743;BME280;11538;48.884;8.696;2022-12-26T14:27:17;98870.22;;;11.10;100.00
22743;BME280;11538;48.884;8.696;2022-12-26T14:30:18;98866.31;;;11.16;100.00
22743;BME280;11538;48.884;8.696;2022-12-26T14:36:27;98890.22;;;11.14;100.00
22743;BME280;11538;48.884;8.696;2022-12-26T14:44:55;98880.97;;;11.01;100.00
22743;BME280;11538;48.884;8.696;2022-12-26T14:47:42;98868.31;;;10.96;100.00
22743;BME280;11538;48.884;8.696;2022-12-26T14:50:39;98863.47;;;10.93;100.00
22743;BME280;11538;48.884;8.696;2022-12-26T14:55:59;98858.44;;;10.87;100.00
22743;BME280;11538;48.884;8.696;2022-12-26T14:58:38;98865.56;;;10.82;100.00
22743;BME280;11538;48.884;8.696;2022-12-26T15:09:39;98868.38;;;10.77;100.00
22743;BME280;11538;48.884;8.696;2022-12-26T15:12:27;98875.72;;;10.77;100.00
22743;BME280;11538;48.884;8.696;2022-12-26T15:18:14;98897.09;;;10.78;100.00
22743;BME280;11538;48.884;8.696;2022-12-26T15:30:03;98895.81;;;10.76;100.00
22743;BME280;11538;48.884;8.696;2022-12-26T15:35:45;98909.47;;;10.71;100.00
22743;BME280;11538;48.884;8.696;2022-12-26T15:38:20;98906.03;;;10.65;100.00
22743;BME280;11538;48.884;8.696;2022-12-26T15:41:14;98902.75;;;10.49;100.00
22743;BME280;11538;48.884;8.696;2022-12-26T15:43:58;98893.66;;;10.39;100.00
22743;BME280;11538;48.884;8.696;2022-12-26T15:46:34;98899.16;;;10.34;100.00
22743;BME280;11538;48.884;8.696;2022-12-26T15:51:49;98889.78;;;10.27;100.00
22743;BME280;11538;48.884;8.696;2022-12-26T15:54:50;98901.22;;;10.23;100.00
22743;BME280;11538;48.884;8.696;2022-12-26T16:00:14;98908.34;;;10.19;100.00
22743;BME280;11538;48.884;8.696;2022-12-26T16:05:42;98920.28;;;10.18;100.00
22743;BME280;11538;48.884;8.696;2022-12-26T16:08:29;98917.84;;;10.17;100.00
22743;BME280;11538;48.884;8.696;2022-12-26T16:11:21;98922.75;;;10.15;100.00
22743;BME280;11538;48.884;8.696;2022-12-26T16:13:59;98932.50;;;10.16;100.00
22743;BME280;11538;48.884;8.696;2022-12-26T16:16:34;98930.88;;;10.15;100.00
22743;BME280;11538;48.884;8.696;2022-12-26T16:19:16;98933.59;;;10.15;100.00
22743;BME280;11538;48.884;8.696;2022-12-26T16:21:47;98941.72;;;10.15;100.00
22743;BME280;11538;48.884;8.696;2022-12-26T16:24:36;98932.28;;;10.12;100.00
22743;BME280;11538;48.884;8.696;2022-12-26T16:27:06;98930.38;;;10.13;100.00
22743;BME280;11538;48.884;8.696;2022-12-26T16:29:42;98935.78;;;10.13;100.00
22743;BME280;11538;48.884;8.696;2022-12-26T16:32:15;98916.81;;;10.13;100.00
22743;BME280;11538;48.884;8.696;2022-12-26T16:34:43;98932.56;;;10.10;100.00
22743;BME280;11538;48.884;8.696;2022-12-26T16:37:17;98934.50;;;10.10;100.00
22743;BME280;11538;48.884;8.696;2022-12-26T16:40:02;98958.06;;;10.09;100.00